sensor_id;sensor_type;location;lat;lon;timestamp;temperature;humidity
34147;DHT22;20423;49.448;9.056;2023-11-21T00:01:01;6.40;99.90
34147;DHT22;20423;49.448;9.056;2023-11-21T00:03:30;6.40;99.90
34147;DHT22;20423;49.448;9.056;2023-11-21T00:05:55;6.40;99.90
34147;DHT22;20423;49.448;9.056;2023-11-21T00:08:21;6.40;99.90
34147;DHT22;20423;49.448;9.056;2023-11-21T00:10:53;6.30;99.90
34147;DHT22;20423;49.448;9.056;2023-11-21T00:13:20;6.40;99.90
34147;DHT22;20423;49.448;9.056;2023-11-21T00:15:46;6.40;99.90
34147;DHT22;20423;49.448;9.056;2023-11-21T00:18:11;6.40;99.90
34147;DHT22;20423;49.448;9.056;2023-11-21T00:20:37;6.40;99.90
34147;DHT22;20423;49.448;9.056;2023-11-21T00:23:02;6.40;99.90
34147;DHT22;20423;49.448;9.056;2023-11-21T00:25:28;6.40;99.90
34147;DHT22;20423;49.448;9.056;2023-11-21T00:27:54;6.40;99.90
34147;DHT22;20423;49.448;9.056;2023-11-21T00:30:19;6.40;99.90
34147;DHT22;20423;49.448;9.056;2023-11-21T00:32:47;6.40;99.90
34147;DHT22;20423;49.448;9.056;2023-11-21T00:35:13;6.40;99.90
34147;DHT22;20423;49.448;9.056;2023-11-21T00:37:42;6.40;99.90
34147;DHT22;20423;49.448;9.056;2023-11-21T00:40:08;6.40;99.90
34147;DHT22;20423;49.448;9.056;2023-11-21T00:42:34;6.40;99.90
34147;DHT22;20423;49.448;9.056;2023-11-21T00:45:00;6.40;99.90
34147;DHT22;20423;49.448;9.056;2023-11-21T00:47:26;6.40;99.90
34147;DHT22;20423;49.448;9.056;2023-11-21T00:49:51;6.40;99.90
34147;DHT22;20423;49.448;9.056;2023-11-21T00:52:18;6.40;99.90
34147;DHT22;20423;49.448;9.056;2023-11-21T00:54:43;6.40;99.90
34147;DHT22;20423;49.448;9.056;2023-11-21T00:57:10;6.50;99.90
34147;DHT22;20423;49.448;9.056;2023-11-21T00:59:37;6.40;99.90
34147;DHT22;20423;49.448;9.056;2023-11-21T01:02:03;6.40;99.90
34147;DHT22;20423;49.448;9.056;2023-11-21T01:04:31;6.50;99.90
34147;DHT22;20423;49.448;9.056;2023-11-21T01:06:58;6.50;99.90
34147;DHT22;20423;49.448;9.056;2023-11-21T01:09:23;6.50;99.90
34147;DHT22;20423;49.448;9.056;2023-11-21T01:11:49;6.40;99.90
34147;DHT22;20423;49.448;9.056;2023-11-21T01:14:15;6.50;99.90
34147;DHT22;20423;49.448;9.056;2023-11-21T01:16:55;6.50;99.90
34147;DHT22;20423;49.448;9.056;2023-11-21T01:19:21;6.50;99.90
34147;DHT22;20423;49.448;9.056;2023-11-21T01:21:46;6.50;99.90
34147;DHT22;20423;49.448;9.056;2023-11-21T01:24:12;6.50;99.90
34147;DHT22;20423;49.448;9.056;2023-11-21T01:26:38;6.50;99.90
34147;DHT22;20423;49.448;9.056;2023-11-21T01:29:03;6.50;99.90
34147;DHT22;20423;49.448;9.056;2023-11-21T01:31:30;6.50;99.90
34147;DHT22;20423;49.448;9.056;2023-11-21T01:33:56;6.60;99.90
34147;DHT22;20423;49.448;9.056;2023-11-21T01:36:22;6.50;99.90
34147;DHT22;20423;49.448;9.056;2023-11-21T01:38:47;6.50;99.90
34147;DHT22;20423;49.448;9.056;2023-11-21T01:41:16;6.50;99.90
34147;DHT22;20423;49.448;9.056;2023-11-21T01:43:41;6.50;99.90
34147;DHT22;20423;49.448;9.056;2023-11-21T01:46:08;6.50;99.90
34147;DHT22;20423;49.448;9.056;2023-11-21T01:48:35;6.50;99.90
34147;DHT22;20423;49.448;9.056;2023-11-21T01:51:02;6.50;99.90
34147;DHT22;20423;49.448;9.056;2023-11-21T01:53:28;6.50;99.90
34147;DHT22;20423;49.448;9.056;2023-11-21T01:55:55;6.50;99.90
34147;DHT22;20423;49.448;9.056;2023-11-21T01:58:21;6.60;99.90
34147;DHT22;20423;49.448;9.056;2023-11-21T02:00:48;6.50;99.90
34147;DHT22;20423;49.448;9.056;2023-11-21T02:03:16;6.50;99.90
34147;DHT22;20423;49.448;9.056;2023-11-21T02:05:42;6.60;99.90
34147;DHT22;20423;49.448;9.056;2023-11-21T02:08:08;6.60;99.90
34147;DHT22;20423;49.448;9.056;2023-11-21T02:10:35;6.60;99.90
34147;DHT22;20423;49.448;9.056;2023-11-21T02:13:02;6.60;99.90
34147;DHT22;20423;49.448;9.056;2023-11-21T02:15:29;6.60;99.90
34147;DHT22;20423;49.448;9.056;2023-11-21T02:17:54;6.60;99.90
34147;DHT22;20423;49.448;9.056;2023-11-21T02:20:21;6.60;99.90
34147;DHT22;20423;49.448;9.056;2023-11-21T02:22:52;6.60;99.90
34147;DHT22;20423;49.448;9.056;2023-11-21T02:25:29;6.60;99.90
34147;DHT22;20423;49.448;9.056;2023-11-21T02:27:56;6.60;99.90
34147;DHT22;20423;49.448;9.056;2023-11-21T02:30:22;6.70;99.90
34147;DHT22;20423;49.448;9.056;2023-11-21T02:32:52;6.60;99.90
34147;DHT22;20423;49.448;9.056;2023-11-21T02:35:22;6.60;99.90
34147;DHT22;20423;49.448;9.056;2023-11-21T02:37:49;6.60;99.90
34147;DHT22;20423;49.448;9.056;2023-11-21T02:40:15;6.60;99.90
34147;DHT22;20423;49.448;9.056;2023-11-21T02:42:46;6.60;99.90
34147;DHT22;20423;49.448;9.056;2023-11-21T02:45:14;6.60;99.90
34147;DHT22;20423;49.448;9.056;2023-11-21T02:47:57;6.60;99.90
34147;DHT22;20423;49.448;9.056;2023-11-21T02:50:23;6.60;99.90
34147;DHT22;20423;49.448;9.056;2023-11-21T02:52:49;6.60;99.90
34147;DHT22;20423;49.448;9.056;2023-11-21T02:55:15;6.60;99.90
34147;DHT22;20423;49.448;9.056;2023-11-21T02:57:41;6.60;99.90
34147;DHT22;20423;49.448;9.056;2023-11-21T03:00:07;6.60;99.90
34147;DHT22;20423;49.448;9.056;2023-11-21T03:02:34;6.60;99.90
34147;DHT22;20423;49.448;9.056;2023-11-21T03:05:05;6.60;99.90
34147;DHT22;20423;49.448;9.056;2023-11-21T03:07:31;6.60;99.90
34147;DHT22;20423;49.448;9.056;2023-11-21T03:09:57;6.70;99.90
34147;DHT22;20423;49.448;9.056;2023-11-21T03:12:23;6.70;99.90
34147;DHT22;20423;49.448;9.056;2023-11-21T03:14:48;6.70;99.90
34147;DHT22;20423;49.448;9.056;2023-11-21T03:17:14;6.60;99.90
34147;DHT22;20423;49.448;9.056;2023-11-21T03:19:41;6.60;99.90
34147;DHT22;20423;49.448;9.056;2023-11-21T03:22:08;6.60;99.90
34147;DHT22;20423;49.448;9.056;2023-11-21T03:24:34;6.60;99.90
34147;DHT22;20423;49.448;9.056;2023-11-21T03:27:03;6.70;99.90
34147;DHT22;20423;49.448;9.056;2023-11-21T03:29:29;6.70;99.90
34147;DHT22;20423;49.448;9.056;2023-11-21T03:31:58;6.70;99.90
34147;DHT22;20423;49.448;9.056;2023-11-21T03:34:25;6.60;99.90
34147;DHT22;20423;49.448;9.056;2023-11-21T03:36:54;6.60;99.90
34147;DHT22;20423;49.448;9.056;2023-11-21T03:39:20;6.60;99.90
34147;DHT22;20423;49.448;9.056;2023-11-21T03:41:46;6.70;99.90
34147;DHT22;20423;49.448;9.056;2023-11-21T03:44:12;6.70;99.90
34147;DHT22;20423;49.448;9.056;2023-11-21T03:46:38;6.70;99.90
34147;DHT22;20423;49.448;9.056;2023-11-21T03:49:04;6.60;99.90
34147;DHT22;20423;49.448;9.056;2023-11-21T03:51:30;6.60;99.90
34147;DHT22;20423;49.448;9.056;2023-11-21T03:53:56;6.60;99.90
34147;DHT22;20423;49.448;9.056;2023-11-21T03:56:21;6.60;99.90
34147;DHT22;20423;49.448;9.056;2023-11-21T03:58:48;6.60;99.90
34147;DHT22;20423;49.448;9.056;2023-11-21T04:01:24;6.60;99.90
34147;DHT22;20423;49.448;9.056;2023-11-21T04:03:50;6.60;99.90
34147;DHT22;20423;49.448;9.056;2023-11-21T04:06:17;6.60;99.90
34147;DHT22;20423;49.448;9.056;2023-11-21T04:08:44;6.60;99.90
34147;DHT22;20423;49.448;9.056;2023-11-21T04:11:10;6.60;99.90
34147;DHT22;20423;49.448;9.056;2023-11-21T04:13:40;6.60;99.90
34147;DHT22;20423;49.448;9.056;2023-11-21T04:16:08;6.60;99.90
34147;DHT22;20423;49.448;9.056;2023-11-21T04:18:59;6.60;99.90
34147;DHT22;20423;49.448;9.056;2023-11-21T04:21:25;6.60;99.90
34147;DHT22;20423;49.448;9.056;2023-11-21T04:24:09;6.60;99.90
34147;DHT22;20423;49.448;9.056;2023-11-21T04:26:44;6.60;99.90
34147;DHT22;20423;49.448;9.056;2023-11-21T04:29:10;6.60;99.90
34147;DHT22;20423;49.448;9.056;2023-11-21T04:31:36;6.60;99.90
34147;DHT22;20423;49.448;9.056;2023-11-21T04:34:02;6.60;99.90
34147;DHT22;20423;49.448;9.056;2023-11-21T04:36:29;6.60;99.90
34147;DHT22;20423;49.448;9.056;2023-11-21T04:38:56;6.60;99.90
34147;DHT22;20423;49.448;9.056;2023-11-21T04:41:22;6.60;99.90
34147;DHT22;20423;49.448;9.056;2023-11-21T04:43:49;6.60;99.90
34147;DHT22;20423;49.448;9.056;2023-11-21T04:46:15;6.60;99.90
34147;DHT22;20423;49.448;9.056;2023-11-21T04:48:41;6.70;99.90
34147;DHT22;20423;49.448;9.056;2023-11-21T04:51:06;6.70;99.90
34147;DHT22;20423;49.448;9.056;2023-11-21T04:53:32;6.70;99.90
34147;DHT22;20423;49.448;9.056;2023-11-21T04:55:58;6.70;99.90
34147;DHT22;20423;49.448;9.056;2023-11-21T04:58:24;6.70;99.90
34147;DHT22;20423;49.448;9.056;2023-11-21T05:00:50;6.70;99.90
34147;DHT22;20423;49.448;9.056;2023-11-21T05:03:15;6.60;99.90
34147;DHT22;20423;49.448;9.056;2023-11-21T05:05:41;6.70;99.90
34147;DHT22;20423;49.448;9.056;2023-11-21T05:08:07;6.70;99.90
34147;DHT22;20423;49.448;9.056;2023-11-21T05:10:33;6.70;99.90
34147;DHT22;20423;49.448;9.056;2023-11-21T05:12:59;6.60;99.90
34147;DHT22;20423;49.448;9.056;2023-11-21T05:15:25;6.60;99.90
34147;DHT22;20423;49.448;9.056;2023-11-21T05:17:53;6.60;99.90
34147;DHT22;20423;49.448;9.056;2023-11-21T05:20:20;6.60;99.90
34147;DHT22;20423;49.448;9.056;2023-11-21T05:22:55;6.60;99.90
34147;DHT22;20423;49.448;9.056;2023-11-21T05:25:21;6.60;99.90
34147;DHT22;20423;49.448;9.056;2023-11-21T05:27:47;6.60;99.90
34147;DHT22;20423;49.448;9.056;2023-11-21T05:30:14;6.60;99.90
34147;DHT22;20423;49.448;9.056;2023-11-21T05:32:40;6.60;99.90
34147;DHT22;20423;49.448;9.056;2023-11-21T05:35:08;6.60;99.90
34147;DHT22;20423;49.448;9.056;2023-11-21T05:37:43;6.60;99.90
34147;DHT22;20423;49.448;9.056;2023-11-21T05:40:09;6.60;99.90
34147;DHT22;20423;49.448;9.056;2023-11-21T05:42:36;6.60;99.90
34147;DHT22;20423;49.448;9.056;2023-11-21T05:45:04;6.60;99.90
34147;DHT22;20423;49.448;9.056;2023-11-21T05:47:46;6.60;99.90
34147;DHT22;20423;49.448;9.056;2023-11-21T05:50:14;6.70;99.90
34147;DHT22;20423;49.448;9.056;2023-11-21T05:52:41;6.60;99.90
34147;DHT22;20423;49.448;9.056;2023-11-21T05:55:08;6.70;99.90
34147;DHT22;20423;49.448;9.056;2023-11-21T05:57:38;6.70;99.90
34147;DHT22;20423;49.448;9.056;2023-11-21T06:00:05;6.70;99.90
34147;DHT22;20423;49.448;9.056;2023-11-21T06:02:41;6.70;99.90
34147;DHT22;20423;49.448;9.056;2023-11-21T06:05:07;6.60;99.90
34147;DHT22;20423;49.448;9.056;2023-11-21T06:07:34;6.60;99.90
34147;DHT22;20423;49.448;9.056;2023-11-21T06:10:04;6.60;99.90
34147;DHT22;20423;49.448;9.056;2023-11-21T06:12:32;6.70;99.90
34147;DHT22;20423;49.448;9.056;2023-11-21T06:15:02;6.70;99.90
34147;DHT22;20423;49.448;9.056;2023-11-21T06:17:33;6.70;99.90
34147;DHT22;20423;49.448;9.056;2023-11-21T06:20:02;6.70;99.90
34147;DHT22;20423;49.448;9.056;2023-11-21T06:22:50;6.70;99.90
34147;DHT22;20423;49.448;9.056;2023-11-21T06:25:15;6.70;99.90
34147;DHT22;20423;49.448;9.056;2023-11-21T06:27:45;6.60;99.90
34147;DHT22;20423;49.448;9.056;2023-11-21T06:30:12;6.70;99.90
34147;DHT22;20423;49.448;9.056;2023-11-21T06:32:39;6.70;99.90
34147;DHT22;20423;49.448;9.056;2023-11-21T06:35:05;6.70;99.90
34147;DHT22;20423;49.448;9.056;2023-11-21T06:37:32;6.70;99.90
34147;DHT22;20423;49.448;9.056;2023-11-21T06:39:59;6.70;99.90
34147;DHT22;20423;49.448;9.056;2023-11-21T06:42:25;6.70;99.90
34147;DHT22;20423;49.448;9.056;2023-11-21T06:44:51;6.70;99.90
34147;DHT22;20423;49.448;9.056;2023-11-21T06:47:18;6.60;99.90
34147;DHT22;20423;49.448;9.056;2023-11-21T06:49:46;6.60;99.90
34147;DHT22;20423;49.448;9.056;2023-11-21T06:52:14;6.60;99.90
34147;DHT22;20423;49.448;9.056;2023-11-21T06:54:40;6.60;99.90
34147;DHT22;20423;49.448;9.056;2023-11-21T06:57:05;6.60;99.90
34147;DHT22;20423;49.448;9.056;2023-11-21T06:59:31;6.60;99.90
34147;DHT22;20423;49.448;9.056;2023-11-21T07:01:57;6.70;99.90
34147;DHT22;20423;49.448;9.056;2023-11-21T07:04:23;6.70;99.90
34147;DHT22;20423;49.448;9.056;2023-11-21T07:06:51;6.70;99.90
34147;DHT22;20423;49.448;9.056;2023-11-21T07:09:17;6.70;99.90
34147;DHT22;20423;49.448;9.056;2023-11-21T07:11:43;6.80;99.90
34147;DHT22;20423;49.448;9.056;2023-11-21T07:14:08;6.80;99.90
34147;DHT22;20423;49.448;9.056;2023-11-21T07:16:37;6.80;99.90
34147;DHT22;20423;49.448;9.056;2023-11-21T07:19:04;6.70;99.90
34147;DHT22;20423;49.448;9.056;2023-11-21T07:21:33;6.70;99.90
34147;DHT22;20423;49.448;9.056;2023-11-21T07:24:03;6.80;99.90
34147;DHT22;20423;49.448;9.056;2023-11-21T07:26:32;6.80;99.90
34147;DHT22;20423;49.448;9.056;2023-11-21T07:28:59;6.90;99.90
34147;DHT22;20423;49.448;9.056;2023-11-21T07:31:25;7.00;99.90
34147;DHT22;20423;49.448;9.056;2023-11-21T07:33:51;7.00;99.90
34147;DHT22;20423;49.448;9.056;2023-11-21T07:36:19;7.10;99.90
34147;DHT22;20423;49.448;9.056;2023-11-21T07:38:46;7.10;99.90
34147;DHT22;20423;49.448;9.056;2023-11-21T07:41:12;7.20;99.90
34147;DHT22;20423;49.448;9.056;2023-11-21T07:43:42;7.20;99.90
34147;DHT22;20423;49.448;9.056;2023-11-21T07:46:08;7.20;99.90
34147;DHT22;20423;49.448;9.056;2023-11-21T07:48:34;7.20;99.90
34147;DHT22;20423;49.448;9.056;2023-11-21T07:51:03;7.30;99.90
34147;DHT22;20423;49.448;9.056;2023-11-21T07:53:29;7.30;99.90
34147;DHT22;20423;49.448;9.056;2023-11-21T07:55:56;7.30;99.90
34147;DHT22;20423;49.448;9.056;2023-11-21T07:58:22;7.30;99.90
34147;DHT22;20423;49.448;9.056;2023-11-21T08:00:48;7.30;99.90
34147;DHT22;20423;49.448;9.056;2023-11-21T08:03:14;7.30;99.90
34147;DHT22;20423;49.448;9.056;2023-11-21T08:05:40;7.40;99.90
34147;DHT22;20423;49.448;9.056;2023-11-21T08:08:05;7.40;99.90
34147;DHT22;20423;49.448;9.056;2023-11-21T08:10:31;7.40;99.90
34147;DHT22;20423;49.448;9.056;2023-11-21T08:12:57;7.30;99.90
34147;DHT22;20423;49.448;9.056;2023-11-21T08:15:24;7.30;99.90
34147;DHT22;20423;49.448;9.056;2023-11-21T08:17:49;7.30;99.90
34147;DHT22;20423;49.448;9.056;2023-11-21T08:20:15;7.30;99.90
34147;DHT22;20423;49.448;9.056;2023-11-21T08:22:44;7.20;99.90
34147;DHT22;20423;49.448;9.056;2023-11-21T08:25:10;7.10;99.90
34147;DHT22;20423;49.448;9.056;2023-11-21T08:27:35;7.00;99.90
34147;DHT22;20423;49.448;9.056;2023-11-21T08:30:03;6.90;99.90
34147;DHT22;20423;49.448;9.056;2023-11-21T08:32:29;6.90;99.90
34147;DHT22;20423;49.448;9.056;2023-11-21T08:34:59;6.80;99.90
34147;DHT22;20423;49.448;9.056;2023-11-21T08:37:25;6.90;99.90
34147;DHT22;20423;49.448;9.056;2023-11-21T08:39:52;6.90;99.90
34147;DHT22;20423;49.448;9.056;2023-11-21T08:42:19;7.00;99.90
34147;DHT22;20423;49.448;9.056;2023-11-21T08:44:44;7.00;99.90
34147;DHT22;20423;49.448;9.056;2023-11-21T08:47:11;6.90;99.90
34147;DHT22;20423;49.448;9.056;2023-11-21T08:49:37;6.90;99.90
34147;DHT22;20423;49.448;9.056;2023-11-21T08:52:03;6.90;99.90
34147;DHT22;20423;49.448;9.056;2023-11-21T08:54:31;6.90;99.90
34147;DHT22;20423;49.448;9.056;2023-11-21T08:56:57;7.00;99.90
34147;DHT22;20423;49.448;9.056;2023-11-21T08:59:24;7.00;99.90
34147;DHT22;20423;49.448;9.056;2023-11-21T09:01:50;7.20;99.90
34147;DHT22;20423;49.448;9.056;2023-11-21T09:04:16;7.30;99.90
34147;DHT22;20423;49.448;9.056;2023-11-21T09:06:42;7.40;99.90
34147;DHT22;20423;49.448;9.056;2023-11-21T09:09:08;7.50;99.90
34147;DHT22;20423;49.448;9.056;2023-11-21T09:11:38;7.50;99.90
34147;DHT22;20423;49.448;9.056;2023-11-21T09:14:04;7.70;99.90
34147;DHT22;20423;49.448;9.056;2023-11-21T09:16:30;7.80;99.90
34147;DHT22;20423;49.448;9.056;2023-11-21T09:18:57;7.90;99.90
34147;DHT22;20423;49.448;9.056;2023-11-21T09:21:23;8.00;99.90
34147;DHT22;20423;49.448;9.056;2023-11-21T09:23:50;8.10;99.90
34147;DHT22;20423;49.448;9.056;2023-11-21T09:26:16;8.10;99.90
34147;DHT22;20423;49.448;9.056;2023-11-21T09:28:46;8.10;99.90
34147;DHT22;20423;49.448;9.056;2023-11-21T09:31:14;8.10;99.90
34147;DHT22;20423;49.448;9.056;2023-11-21T09:33:44;7.90;99.90
34147;DHT22;20423;49.448;9.056;2023-11-21T09:36:13;7.80;99.90
34147;DHT22;20423;49.448;9.056;2023-11-21T09:38:40;7.70;99.90
34147;DHT22;20423;49.448;9.056;2023-11-21T09:41:30;7.70;99.90
34147;DHT22;20423;49.448;9.056;2023-11-21T09:44:02;7.80;99.90
34147;DHT22;20423;49.448;9.056;2023-11-21T09:46:30;7.90;99.90
34147;DHT22;20423;49.448;9.056;2023-11-21T09:48:57;7.90;99.90
34147;DHT22;20423;49.448;9.056;2023-11-21T09:51:30;7.90;99.90
34147;DHT22;20423;49.448;9.056;2023-11-21T09:53:59;7.80;99.90
34147;DHT22;20423;49.448;9.056;2023-11-21T09:56:32;7.80;99.90
34147;DHT22;20423;49.448;9.056;2023-11-21T09:58:58;7.80;99.90
34147;DHT22;20423;49.448;9.056;2023-11-21T10:01:30;7.90;99.90
34147;DHT22;20423;49.448;9.056;2023-11-21T10:03:56;7.90;99.90
34147;DHT22;20423;49.448;9.056;2023-11-21T10:06:22;8.10;99.90
34147;DHT22;20423;49.448;9.056;2023-11-21T10:08:51;8.30;99.90
34147;DHT22;20423;49.448;9.056;2023-11-21T10:11:17;8.40;99.90
34147;DHT22;20423;49.448;9.056;2023-11-21T10:13:46;8.40;99.90
34147;DHT22;20423;49.448;9.056;2023-11-21T10:16:16;8.60;99.90
34147;DHT22;20423;49.448;9.056;2023-11-21T10:18:48;8.90;99.90
34147;DHT22;20423;49.448;9.056;2023-11-21T10:21:15;9.10;99.90
34147;DHT22;20423;49.448;9.056;2023-11-21T10:23:42;9.10;99.90
34147;DHT22;20423;49.448;9.056;2023-11-21T10:26:11;8.80;99.90
34147;DHT22;20423;49.448;9.056;2023-11-21T10:29:02;8.50;99.90
34147;DHT22;20423;49.448;9.056;2023-11-21T10:31:31;8.30;99.90
34147;DHT22;20423;49.448;9.056;2023-11-21T10:34:19;8.40;99.90
34147;DHT22;20423;49.448;9.056;2023-11-21T10:36:45;8.30;99.90
34147;DHT22;20423;49.448;9.056;2023-11-21T10:39:17;8.10;99.90
34147;DHT22;20423;49.448;9.056;2023-11-21T10:41:47;7.90;99.90
34147;DHT22;20423;49.448;9.056;2023-11-21T10:44:19;7.80;99.90
34147;DHT22;20423;49.448;9.056;2023-11-21T10:47:04;7.60;99.90
34147;DHT22;20423;49.448;9.056;2023-11-21T10:49:30;7.50;99.90
34147;DHT22;20423;49.448;9.056;2023-11-21T10:51:57;7.60;99.90
34147;DHT22;20423;49.448;9.056;2023-11-21T10:54:24;7.80;99.90
34147;DHT22;20423;49.448;9.056;2023-11-21T10:56:56;8.00;99.90
34147;DHT22;20423;49.448;9.056;2023-11-21T10:59:23;8.10;99.90
34147;DHT22;20423;49.448;9.056;2023-11-21T11:01:51;8.00;99.90
34147;DHT22;20423;49.448;9.056;2023-11-21T11:04:22;7.80;99.90
34147;DHT22;20423;49.448;9.056;2023-11-21T11:07:03;7.70;99.90
34147;DHT22;20423;49.448;9.056;2023-11-21T11:09:31;7.80;99.90
34147;DHT22;20423;49.448;9.056;2023-11-21T11:11:59;8.00;99.90
34147;DHT22;20423;49.448;9.056;2023-11-21T11:14:25;8.30;99.90
34147;DHT22;20423;49.448;9.056;2023-11-21T11:16:54;8.50;99.90
34147;DHT22;20423;49.448;9.056;2023-11-21T11:19:25;8.60;99.90
34147;DHT22;20423;49.448;9.056;2023-11-21T11:26:56;8.20;99.90
34147;DHT22;20423;49.448;9.056;2023-11-21T11:32:38;8.10;99.90
34147;DHT22;20423;49.448;9.056;2023-11-21T11:35:30;8.30;99.90
34147;DHT22;20423;49.448;9.056;2023-11-21T11:37:59;8.60;99.90
34147;DHT22;20423;49.448;9.056;2023-11-21T11:40:39;8.80;99.90
34147;DHT22;20423;49.448;9.056;2023-11-21T11:43:06;9.00;99.90
34147;DHT22;20423;49.448;9.056;2023-11-21T11:45:34;8.90;99.90
34147;DHT22;20423;49.448;9.056;2023-11-21T11:48:01;8.80;99.90
34147;DHT22;20423;49.448;9.056;2023-11-21T11:50:29;8.40;99.90
34147;DHT22;20423;49.448;9.056;2023-11-21T11:53:14;8.00;99.90
34147;DHT22;20423;49.448;9.056;2023-11-21T11:55:40;7.80;99.90
34147;DHT22;20423;49.448;9.056;2023-11-21T11:58:07;7.80;99.90
34147;DHT22;20423;49.448;9.056;2023-11-21T12:00:36;7.70;99.90
34147;DHT22;20423;49.448;9.056;2023-11-21T12:03:06;7.70;99.90
34147;DHT22;20423;49.448;9.056;2023-11-21T12:05:36;7.70;99.90
34147;DHT22;20423;49.448;9.056;2023-11-21T12:08:06;7.60;99.90
34147;DHT22;20423;49.448;9.056;2023-11-21T12:10:35;7.60;99.90
34147;DHT22;20423;49.448;9.056;2023-11-21T12:13:08;7.60;99.90
34147;DHT22;20423;49.448;9.056;2023-11-21T12:15:36;7.60;99.90
34147;DHT22;20423;49.448;9.056;2023-11-21T12:18:03;7.70;99.90
34147;DHT22;20423;49.448;9.056;2023-11-21T12:20:30;7.70;99.90
34147;DHT22;20423;49.448;9.056;2023-11-21T12:22:59;7.70;99.90
34147;DHT22;20423;49.448;9.056;2023-11-21T12:25:28;7.60;99.90
34147;DHT22;20423;49.448;9.056;2023-11-21T12:27:55;7.60;99.90
34147;DHT22;20423;49.448;9.056;2023-11-21T12:30:23;7.60;99.90
34147;DHT22;20423;49.448;9.056;2023-11-21T12:32:51;7.60;99.90
34147;DHT22;20423;49.448;9.056;2023-11-21T12:35:18;7.60;99.90
34147;DHT22;20423;49.448;9.056;2023-11-21T12:37:53;7.60;99.90
34147;DHT22;20423;49.448;9.056;2023-11-21T12:40:20;7.70;99.90
34147;DHT22;20423;49.448;9.056;2023-11-21T12:42:51;7.60;99.90
34147;DHT22;20423;49.448;9.056;2023-11-21T12:50:23;7.80;99.90
34147;DHT22;20423;49.448;9.056;2023-11-21T12:52:50;7.90;99.90
34147;DHT22;20423;49.448;9.056;2023-11-21T12:55:17;8.00;99.90
34147;DHT22;20423;49.448;9.056;2023-11-21T12:57:48;8.00;99.90
34147;DHT22;20423;49.448;9.056;2023-11-21T13:00:16;7.90;99.90
34147;DHT22;20423;49.448;9.056;2023-11-21T13:02:54;7.70;99.90
34147;DHT22;20423;49.448;9.056;2023-11-21T13:05:30;7.70;99.90
34147;DHT22;20423;49.448;9.056;2023-11-21T13:08:00;7.60;99.90
34147;DHT22;20423;49.448;9.056;2023-11-21T13:10:29;7.50;99.90
34147;DHT22;20423;49.448;9.056;2023-11-21T13:13:00;7.40;99.90
34147;DHT22;20423;49.448;9.056;2023-11-21T13:15:29;7.40;99.90
34147;DHT22;20423;49.448;9.056;2023-11-21T13:17:57;7.30;99.90
34147;DHT22;20423;49.448;9.056;2023-11-21T13:20:27;7.30;99.90
34147;DHT22;20423;49.448;9.056;2023-11-21T13:22:54;7.30;99.90
34147;DHT22;20423;49.448;9.056;2023-11-21T13:25:23;7.30;99.90
34147;DHT22;20423;49.448;9.056;2023-11-21T13:27:49;7.50;99.90
34147;DHT22;20423;49.448;9.056;2023-11-21T13:30:16;7.60;99.90
34147;DHT22;20423;49.448;9.056;2023-11-21T13:32:45;7.80;99.90
34147;DHT22;20423;49.448;9.056;2023-11-21T13:35:12;7.80;99.90
34147;DHT22;20423;49.448;9.056;2023-11-21T13:37:48;7.90;99.90
34147;DHT22;20423;49.448;9.056;2023-11-21T13:40:15;8.00;99.90
34147;DHT22;20423;49.448;9.056;2023-11-21T13:43:10;8.10;99.90
34147;DHT22;20423;49.448;9.056;2023-11-21T13:45:37;8.30;99.90
34147;DHT22;20423;49.448;9.056;2023-11-21T13:48:05;8.30;99.90
34147;DHT22;20423;49.448;9.056;2023-11-21T13:50:38;8.40;99.90
34147;DHT22;20423;49.448;9.056;2023-11-21T13:53:04;8.60;99.90
34147;DHT22;20423;49.448;9.056;2023-11-21T13:55:46;8.70;99.90
34147;DHT22;20423;49.448;9.056;2023-11-21T13:58:13;8.60;99.90
34147;DHT22;20423;49.448;9.056;2023-11-21T14:00:45;8.60;99.90
34147;DHT22;20423;49.448;9.056;2023-11-21T14:03:15;8.50;99.90
34147;DHT22;20423;49.448;9.056;2023-11-21T14:09:35;8.20;99.90
34147;DHT22;20423;49.448;9.056;2023-11-21T14:12:09;8.00;99.90
34147;DHT22;20423;49.448;9.056;2023-11-21T14:14:40;8.00;99.90
34147;DHT22;20423;49.448;9.056;2023-11-21T14:17:06;8.00;99.90
34147;DHT22;20423;49.448;9.056;2023-11-21T14:19:32;7.90;99.90
34147;DHT22;20423;49.448;9.056;2023-11-21T14:21:59;7.90;99.90
34147;DHT22;20423;49.448;9.056;2023-11-21T14:24:26;7.80;99.90
34147;DHT22;20423;49.448;9.056;2023-11-21T14:26:52;7.70;99.90
34147;DHT22;20423;49.448;9.056;2023-11-21T14:29:18;7.60;99.90
34147;DHT22;20423;49.448;9.056;2023-11-21T14:31:49;7.60;99.90
34147;DHT22;20423;49.448;9.056;2023-11-21T14:34:22;7.50;99.90
34147;DHT22;20423;49.448;9.056;2023-11-21T14:36:48;7.50;99.90
34147;DHT22;20423;49.448;9.056;2023-11-21T14:39:14;7.40;99.90
34147;DHT22;20423;49.448;9.056;2023-11-21T14:41:53;7.20;99.90
34147;DHT22;20423;49.448;9.056;2023-11-21T14:44:21;7.20;99.90
34147;DHT22;20423;49.448;9.056;2023-11-21T14:46:52;7.10;99.90
34147;DHT22;20423;49.448;9.056;2023-11-21T14:49:20;7.10;99.90
34147;DHT22;20423;49.448;9.056;2023-11-21T14:51:51;7.10;99.90
34147;DHT22;20423;49.448;9.056;2023-11-21T14:54:28;7.10;99.90
34147;DHT22;20423;49.448;9.056;2023-11-21T14:57:10;7.10;99.90
34147;DHT22;20423;49.448;9.056;2023-11-21T14:59:48;7.10;99.90
34147;DHT22;20423;49.448;9.056;2023-11-21T15:02:18;7.00;99.90
34147;DHT22;20423;49.448;9.056;2023-11-21T15:04:48;6.90;99.90
34147;DHT22;20423;49.448;9.056;2023-11-21T15:07:17;6.90;99.90
34147;DHT22;20423;49.448;9.056;2023-11-21T15:09:42;6.90;99.90
34147;DHT22;20423;49.448;9.056;2023-11-21T15:12:10;6.90;99.90
34147;DHT22;20423;49.448;9.056;2023-11-21T15:17:08;6.80;99.90
34147;DHT22;20423;49.448;9.056;2023-11-21T15:19:34;6.90;99.90
34147;DHT22;20423;49.448;9.056;2023-11-21T15:22:02;6.80;99.90
34147;DHT22;20423;49.448;9.056;2023-11-21T15:24:27;6.70;99.90
34147;DHT22;20423;49.448;9.056;2023-11-21T15:26:53;6.70;99.90
34147;DHT22;20423;49.448;9.056;2023-11-21T15:29:19;6.70;99.90
34147;DHT22;20423;49.448;9.056;2023-11-21T15:31:47;6.70;99.90
34147;DHT22;20423;49.448;9.056;2023-11-21T15:34:17;6.60;99.90
34147;DHT22;20423;49.448;9.056;2023-11-21T15:36:43;6.60;99.90
34147;DHT22;20423;49.448;9.056;2023-11-21T15:39:18;6.60;99.90
34147;DHT22;20423;49.448;9.056;2023-11-21T15:41:47;6.50;99.90
34147;DHT22;20423;49.448;9.056;2023-11-21T15:44:13;6.50;99.90
34147;DHT22;20423;49.448;9.056;2023-11-21T15:46:39;6.50;99.90
34147;DHT22;20423;49.448;9.056;2023-11-21T15:49:07;6.50;99.90
34147;DHT22;20423;49.448;9.056;2023-11-21T15:51:39;6.50;99.90
34147;DHT22;20423;49.448;9.056;2023-11-21T15:54:06;6.50;99.90
34147;DHT22;20423;49.448;9.056;2023-11-21T15:56:33;6.50;99.90
34147;DHT22;20423;49.448;9.056;2023-11-21T15:59:01;6.50;99.90
34147;DHT22;20423;49.448;9.056;2023-11-21T16:01:26;6.50;99.90
34147;DHT22;20423;49.448;9.056;2023-11-21T16:03:52;6.60;99.90
34147;DHT22;20423;49.448;9.056;2023-11-21T16:06:19;6.50;99.90
34147;DHT22;20423;49.448;9.056;2023-11-21T16:08:45;6.60;99.90
34147;DHT22;20423;49.448;9.056;2023-11-21T16:11:48;6.60;99.90